Onion Creek, California Weather observations

Data are for observation ending at time listed.
 Day   Time    Ave.   Ave.  Ave.  Vector   Max.   Stn.    Total    Solar   Ave.   Snow 
  of    of     Air    Rel.  Wind   Wind    Wind   Baro.  Precip.   Rad.    Soil   Depth
Year   Day     Temp.  Hum.  Speed  Dir.    Gust   Pres.                    Temp.       
2014   (PST)    F      %     mph   deg.    mph     mb.     in.     W/m2     F      in. 
---------------------------------------------------------------------------------------  
 292   14:40   63.4    32    3.8   233      8.7   829.5   15.32     491    999.0   999.0
 292   14:50   63.8    33    3.5   254     10.0   829.5   15.32     465    999.0   999.0
 292   15:00   63.4    34    2.6   260      8.6   829.5   15.32     437    999.0   999.0
 292   15:10   62.9    34    3.0   248      8.2   829.6   15.32     407    999.0   999.0
 292   15:20   62.3    34    3.2   221      9.1   829.5   15.32     376    999.0   999.0
 292   15:30   61.3    36    3.4   250      8.8   829.5   15.32     100    999.0   999.0
 292   15:40   60.7    37    3.3   278      8.2   829.4   15.32     259    999.0   999.0
 292   15:50   61.4    37    2.2   248      5.7   829.4   15.32     277    999.0   999.0
 292   16:00   61.5    35    2.8   256      6.3   829.4   15.32     242    999.0   999.0
 292   16:10   61.1    35    3.1   252      7.5   829.4   15.32     209    999.0   999.0
 292   16:20   61.1    37    1.7   239      7.5   829.3   15.32     177    999.0   999.0
 292   16:30   60.1    38    1.6   262      4.7   829.3   15.34     140    999.0   999.0
 292   16:40   57.8    43    1.9   260      6.9   829.4   15.32     100    999.0   999.0
 292   16:50   56.4    46    1.8   232      8.2   829.4   15.32      41    999.0   999.0
 292   17:00   54.9    52    0.0   217      0.6   829.4   15.34      10    999.0   999.0
 292   17:10   53.3    57    0.2    81      1.2   829.3   15.32       7    999.0   999.0
 292   17:20   51.9    61    0.5    41      1.9   829.4   15.32       4    999.0   999.0
 292   17:30   50.4    66    1.0    38      1.5   829.4   15.32       2    999.0   999.0
 292   17:40   49.3    68    1.0    42      1.8   829.4   15.32       0    999.0   999.0
 292   17:50   48.3    70    0.7    28      1.5   829.4   15.32       0    999.0   999.0
 292   18:00   47.8    69    1.3    36      2.0   829.5   15.32       0    999.0   999.0
 292   18:10   47.2    71    0.9    41      1.9   829.5   15.32       0    999.0   999.0
 292   18:20   46.4    71    1.2    36      1.9   829.5   15.32       0    999.0   999.0
 292   18:30   46.0    71    1.5    34      2.4   829.5   15.32       0    999.0   999.0
 292   18:40   45.7    72    1.6    32      3.3   829.5   15.32       0    999.0   999.0
 292   18:50   45.2    71    2.1    34      2.9   829.4   15.32       0    999.0   999.0
 292   19:00   45.0    72    2.0    41      2.9   829.4   15.32       0    999.0   999.0
 292   19:10   44.9    72    2.2    40      3.4   829.4   15.34       0    999.0   999.0
 292   19:20   44.8    72    2.2    42      3.7   829.4   15.32       0    999.0   999.0
 292   19:30   44.7    73    1.8    47      3.1   829.4   15.32       0    999.0   999.0
 292   19:40   44.5    72    2.0    27      3.6   829.4   15.32       0    999.0   999.0
 292   19:50   43.8    74    2.2    37      3.3   829.4   15.32       0    999.0   999.0
 292   20:00   43.6    74    2.1    39      4.0   829.4   15.34       0    999.0   999.0
 292   20:10   43.5    74    2.2    40      3.8   829.5   15.32       0    999.0   999.0
 292   20:20   43.2    75    2.1    33      4.1   829.5   15.34       0    999.0   999.0
 292   20:30   43.0    74    1.6    35      3.0   829.5   15.32       0    999.0   999.0
 292   20:40   42.9    75    1.3    34      3.1   829.5   15.32       0    999.0   999.0
 292   20:50   42.6    75    1.5    33      3.7   829.5   15.34       0    999.0   999.0
 292   21:00   42.4    76    1.5    33      3.1   829.4   15.32       0    999.0   999.0
 292   21:10   42.6    76    1.4    50      4.5   829.4   15.34       0    999.0   999.0
 292   21:20   42.9    75    1.8    42      3.7   829.5   15.32       0    999.0   999.0
 292   21:30   42.4    77    1.3    29      2.9   829.5   15.34       0    999.0   999.0
 292   21:40   42.4    76    1.3    30      2.9   829.4   15.34       0    999.0   999.0
 292   21:50   42.4    75    1.5    35      3.4   829.5   15.34       0    999.0   999.0
 292   22:00   42.5    75    1.4    38      5.8   829.6   15.32       0    999.0   999.0
 292   22:10   42.4    76    1.3    35      3.0   829.6   15.32       0    999.0   999.0
 292   22:20   42.1    76    1.1    32      2.6   829.5   15.34       0    999.0   999.0
 292   22:30   42.0    76    1.2    28      2.2   829.5   15.32       0    999.0   999.0
 292   22:40   41.9    77    1.3    35      2.4   829.4   15.34       0    999.0   999.0
 292   22:50   41.9    78    1.4    36      2.5   829.4   15.34       0    999.0   999.0
 292   23:00   42.0    78    1.3    37      2.4   829.3   15.34       0    999.0   999.0
 292   23:10   41.7    79    1.5    40      2.5   829.2   15.32       0    999.0   999.0
 292   23:20   41.7    80    1.2    30      2.8   829.2   15.34       0    999.0   999.0
 292   23:30   41.5    80    1.5    30      2.7   829.2   15.32       0    999.0   999.0
 292   23:40   41.4    81    1.4    25      2.8   829.2   15.32       0    999.0   999.0
 292   23:50   41.2    81    1.4    35      2.9   829.3   15.32       0    999.0   999.0
 293    0:00   41.1    81    1.4    38      2.8   829.2   15.34       0    999.0   999.0
 293    0:10   41.1    82    1.5    37      2.8   829.2   15.32       0    999.0   999.0
 293    0:20   41.0    82    1.3    34      2.6   829.2   15.32       0    999.0   999.0
 293    0:30   40.8    82    1.3    36      2.2   829.2   15.34       0    999.0   999.0
 293    0:40   40.8    82    1.2    27      2.1   829.1   15.32       0    999.0   999.0
 293    0:50   40.6    82    1.4    33      3.0   829.2   15.34       0    999.0   999.0
 293    1:00   40.4    83    1.3    36      3.3   829.2   15.32       0    999.0   999.0
 293    1:10   40.3    83    1.0    38      2.8   829.2   15.32       0    999.0   999.0
 293    1:20   40.1    84    1.2    37      2.4   829.3   15.32       0    999.0   999.0
 293    1:30   39.9    84    1.3    34      2.9   829.3   15.34       0    999.0   999.0
 293    1:40   39.7    84    1.2    32      2.9   829.3   15.32       0    999.0   999.0
 293    1:50   39.8    84    1.5    34      2.6   829.3   15.32       0    999.0   999.0
 293    2:00   39.5    84    1.0    33      2.7   829.2   15.34       0    999.0   999.0
 293    2:10   39.3    84    1.1    36      2.3   829.2   15.32       0    999.0   999.0
 293    2:20   38.9    85    1.1    34      2.3   829.1   15.34       0    999.0   999.0
 293    2:30   38.6    85    1.5    30      2.9   829.1   15.34       0    999.0   999.0
 293    2:40   38.7    84    1.3    32      2.5   829.2   15.34       0    999.0   999.0
 293    2:50   38.5    84    1.2    26      2.6   829.1   15.32       0    999.0   999.0
 293    3:00   38.2    84    1.5    30      2.5   829.1   15.34       0    999.0   999.0
 293    3:10   38.2    84    1.7    26      2.9   829.2   15.34       0    999.0   999.0
 293    3:20   37.9    84    1.3    29      2.6   829.2   15.34       0    999.0   999.0
 293    3:30   37.9    83    1.6    31      2.0   829.1   15.32       0    999.0   999.0
 293    3:40   37.8    83    1.4    31      2.3   829.0   15.34       0    999.0   999.0
 293    3:50   38.0    83    2.3    33      3.2   828.8   15.32       0    999.0   999.0
 293    4:00   38.3    82    2.1    32      3.5   828.7   15.34       0    999.0   999.0
 293    4:10   37.8    83    1.6    26      3.6   828.7   15.34       0    999.0   999.0
 293    4:20   37.8    83    1.5    34      3.1   828.6   15.32       0    999.0   999.0
 293    4:30   37.5    85    1.4    34      2.6   828.6   15.32       0    999.0   999.0
 293    4:40   37.5    85    1.1    32      2.9   828.5   15.34       0    999.0   999.0
 293    4:50   37.8    85    1.5    50      2.7   828.5   15.34       0    999.0   999.0
 293    5:00   37.7    85    1.3    28      3.2   828.5   15.34       0    999.0   999.0
 293    5:10   37.4    86    1.4    33      2.6   828.5   15.32       0    999.0   999.0
 293    5:20   37.6    86    1.4    35      2.6   828.5   15.32       0    999.0   999.0
 293    5:30   37.7    86    1.5    32      2.7   828.4   15.32       0    999.0   999.0
 293    5:40   37.6    86    1.4    34      3.4   828.3   15.34       0    999.0   999.0
 293    5:50   37.2    87    1.2    33      2.9   828.3   15.34       0    999.0   999.0
 293    6:00   37.4    87    1.8    37      3.1   828.2   15.34       0    999.0   999.0
 293    6:10   37.6    87    1.2    31      2.8   828.3   15.34       1    999.0   999.0
 293    6:20   37.3    87    1.3    34      2.9   828.3   15.34       3    999.0   999.0
 293    6:30   37.4    88    1.4    34      2.3   828.3   15.37       9    999.0   999.0
 293    6:40   37.5    87    0.9    35      2.6   828.3   15.34      12    999.0   999.0
 293    6:50   37.7    88    1.2    45      2.0   828.4   15.34      15    999.0   999.0
 293    7:00   38.0    87    1.1    42      2.3   828.5   15.34      13    999.0   999.0
 293    7:10   37.9    88    1.0    37      2.0   828.6   15.34      15    999.0   999.0
 293    7:20   38.4    88    1.2    41      2.5   828.8   15.34      16    999.0   999.0
 293    7:30   39.1    87    0.9    49      2.0   828.9   15.34      19    999.0   999.0
 293    7:40   39.9    86    0.9    67      2.4   829.1   15.34      29    999.0   999.0
 293    7:50   40.6    85    0.8    57      2.2   829.2   15.34      58    999.0   999.0
 293    8:00   42.7    79    0.8   166      3.7   829.2   15.34      79    999.0   999.0
 293    8:10   44.8    73    0.8   136      5.1   829.2   15.34     104    999.0   999.0
 293    8:20   46.1    71    0.9   206      3.4   829.3   15.34      94    999.0   999.0
 293    8:30   46.5    70    2.0   275      6.4   829.3   15.34      97    999.0   999.0
 293    8:40   47.2    68    1.4   261      4.5   829.2   15.34     110    999.0   999.0
 293    8:50   47.4    67    1.3   254      7.9   829.2   15.34     123    999.0   999.0
 293    9:00   47.4    68    1.0   134      3.8   829.3   15.34     173    999.0   999.0
 293    9:10   48.3    66    1.2   207      4.2   829.3   15.34     350    999.0   999.0
 293    9:20   49.9    65    1.5   276      5.8   829.3   15.34     523    999.0   999.0
 293    9:30   51.5    62    2.7   266      7.0   829.3   15.34     564    999.0   999.0
 293    9:40   52.4    61    2.2   270      7.6   829.2   15.32     604    999.0   999.0
 293    9:50   53.5    60    3.0   255     11.1   829.2   15.34     638    999.0   999.0
 293   10:00   54.0    58    3.1   257      9.2   829.1   15.34     641    999.0   999.0
 293   10:10   54.4    55    4.0   262     10.8   829.0   15.34     686    999.0   999.0
 293   10:20   54.8    55    3.8   265     12.1   828.9   15.34     722    999.0   999.0
 293   10:30   55.1    54    4.4   248     13.0   828.8   15.34     601    999.0   999.0
 293   10:40   55.0    54    4.8   271     10.7   828.7   15.32     500    999.0   999.0
 293   10:50   53.7    56    4.7   265     12.6   828.7   15.32     341    999.0   999.0
 293   11:00   53.7    55    4.9   262     14.3   828.6   15.32     543    999.0   999.0
 293   11:10   55.3    53    4.6   254     12.3   828.6   15.32     634    999.0   999.0
 293   11:20   55.2    55    5.5   264     12.6   828.6   15.32     553    999.0   999.0
 293   11:30   54.0    59    3.8   269      9.1   828.6   15.34     369    999.0   999.0
 293   11:40   53.5    60    5.6   256     14.7   828.6   15.34     363    999.0   999.0
 293   11:50   53.1    61    4.5   255     13.6   828.5   15.34     441    999.0   999.0
 293   12:00   53.6    60    4.4   263     11.2   828.5   15.32     396    999.0   999.0
 293   12:10   54.6    58    4.2   268     10.0   828.4   15.32     662    999.0   999.0
 293   12:20   53.7    60    4.1   248     12.1   828.5   15.32     336    999.0   999.0
 293   12:30   53.1    61    4.4   260     12.1   828.3   15.32     355    999.0   999.0
 293   12:40   53.5    60    4.3   260     14.5   828.3   15.34     432    999.0   999.0
 293   12:50   53.8    58    4.1   261     10.4   828.3   15.32     353    999.0   999.0
 293   13:00   53.6    58    4.2   254     14.8   828.2   15.32     279    999.0   999.0
 293   13:10   53.6    58    5.0   263     13.2   828.2   15.32     570    999.0   999.0
 293   13:20   54.1    58    4.2   277     12.4   828.2   15.34     383    999.0   999.0
 293   13:30   53.9    58    3.7   270     12.2   828.2   15.34     334    999.0   999.0
 293   13:40   53.5    59    4.0   263      9.6   828.2   15.34     355    999.0   999.0
 293   13:50   53.3    59    4.4   267     14.0   828.1   15.32     397    999.0   999.0
 293   14:00   52.6    60    4.9   258     17.2   828.1   15.34     178    999.0   999.0
 293   14:10   52.5    60    4.1   262     10.8   828.0   15.34     309    999.0   999.0
 293   14:20   53.3    58    5.3   276     13.6   827.9   15.34     386    999.0   999.0
 293   14:30   54.1    57    3.4   269     12.3   827.9   15.34     404    999.0   999.0

Return to Onion Creek graphs page.


Western Regional Climate Center,wrcc@dri.edu